Time;durP1;ratioP1;P1;durP2;ratioP2;P2;SDS_P1;SDS_P2;PMS_P1;PMS_P2;Temp;Humidity;BMP_temperature;BMP_pressure;BME280_temperature;BME280_humidity;BME280_pressure;Samples;Min_cycle;Max_cycle;Signal;HPM_P1;HPM_P2
2022/11/25 00:01:19;;;;;;;19.20;9.27;;;0.50;99.90;;;;;;5019072;28;20030;-71
2022/11/25 00:03:46;;;;;;;18.58;8.60;;;0.50;99.90;;;;;;5026565;28;20043;-70
2022/11/25 00:06:21;;;;;;;20.40;9.27;;;0.50;99.90;;;;;;5029215;28;20116;-73
2022/11/25 00:08:50;;;;;;;21.80;9.95;;;0.50;99.90;;;;;;5044983;28;20029;-72
2022/11/25 00:11:17;;;;;;;17.17;7.53;;;0.60;99.90;;;;;;5040484;28;20072;-70
2022/11/25 00:13:43;;;;;;;16.05;7.93;;;0.50;99.90;;;;;;5027292;28;20037;-71
2022/11/25 00:16:11;;;;;;;15.30;5.80;;;0.50;99.90;;;;;;5027503;28;20045;-71
2022/11/25 00:18:37;;;;;;;11.63;6.20;;;0.50;99.90;;;;;;5028197;28;20470;-70
2022/11/25 00:21:07;;;;;;;14.68;6.93;;;0.50;99.90;;;;;;5033920;28;20044;-74
2022/11/25 00:23:34;;;;;;;12.77;6.60;;;0.40;99.90;;;;;;5030204;28;20053;-72
2022/11/25 00:26:14;;;;;;;17.75;7.35;;;0.40;99.90;;;;;;5033860;28;20037;-70
2022/11/25 00:28:42;;;;;;;19.35;8.27;;;0.50;99.90;;;;;;5039874;28;20033;-69
2022/11/25 00:31:14;;;;;;;17.33;8.30;;;0.50;99.90;;;;;;5044323;28;20037;-74
2022/11/25 00:33:40;;;;;;;17.15;8.77;;;0.40;99.90;;;;;;5025572;28;20021;-70
2022/11/25 00:36:20;;;;;;;15.48;7.43;;;0.40;99.90;;;;;;5043212;28;20610;-72
2022/11/25 00:38:46;;;;;;;16.73;8.20;;;0.40;99.90;;;;;;5039545;28;20112;-71
2022/11/25 00:46:42;;;;;;;23.00;8.48;;;0.40;99.90;;;;;;5022606;28;20036;-71
2022/11/25 00:49:07;;;;;;;15.65;7.90;;;0.30;99.90;;;;;;5026614;28;20030;-71
2022/11/25 00:51:33;;;;;;;16.17;7.97;;;0.30;99.90;;;;;;5034460;28;20033;-74
2022/11/25 00:53:58;;;;;;;15.93;7.38;;;0.30;99.90;;;;;;5030665;28;20033;-72
2022/11/25 00:56:24;;;;;;;19.30;8.65;;;0.30;99.90;;;;;;5040367;28;20064;-70
2022/11/25 00:58:53;;;;;;;17.48;8.48;;;0.30;99.90;;;;;;5045297;28;20622;-69
2022/11/25 01:01:18;;;;;;;18.05;8.82;;;0.30;99.90;;;;;;5031292;28;20033;-74
2022/11/25 01:03:44;;;;;;;17.45;8.02;;;0.40;99.90;;;;;;5025619;28;20034;-70
2022/11/25 01:06:10;;;;;;;15.93;7.75;;;0.30;99.90;;;;;;5028611;28;20068;-71
2022/11/25 01:08:37;;;;;;;14.77;7.13;;;0.30;99.90;;;;;;5039559;28;20053;-71
2022/11/25 01:11:12;;;;;;;18.77;9.00;;;0.30;99.90;;;;;;5048195;28;20090;-74
2022/11/25 01:13:38;;;;;;;17.10;8.07;;;0.20;99.90;;;;;;5044585;28;20068;-73
2022/11/25 01:16:05;;;;;;;18.33;8.25;;;0.20;99.90;;;;;;5045935;28;20025;-70
2022/11/25 01:18:32;;;;;;;16.90;8.02;;;0.20;99.90;;;;;;5048777;28;20044;-78
2022/11/25 01:21:08;;;;;;;17.23;8.32;;;0.30;99.90;;;;;;5037602;28;20056;-72
2022/11/25 01:23:34;;;;;;;17.63;8.60;;;0.30;99.90;;;;;;5043240;28;20030;-76
2022/11/25 01:26:04;;;;;;;18.15;7.68;;;0.30;99.90;;;;;;5032510;28;20040;-71
2022/11/25 01:28:31;;;;;;;23.10;10.50;;;0.20;99.90;;;;;;5030780;28;20094;-77
2022/11/25 01:31:05;;;;;;;18.88;9.25;;;0.30;99.90;;;;;;5031055;28;20487;-74
2022/11/25 01:33:32;;;;;;;19.70;9.73;;;0.20;99.90;;;;;;5020717;28;20055;-77
2022/11/25 01:36:10;;;;;;;23.55;10.95;;;0.20;99.90;;;;;;5030835;28;20029;-71
2022/11/25 01:38:36;;;;;;;23.83;10.15;;;0.20;99.90;;;;;;5037561;28;20044;-75
2022/11/25 01:41:03;;;;;;;24.73;10.57;;;0.20;99.90;;;;;;5049209;28;20486;-74
2022/11/25 01:43:29;;;;;;;22.38;10.02;;;0.30;99.90;;;;;;5032924;28;20101;-71
2022/11/25 01:46:04;;;;;;;19.60;9.77;;;0.30;99.90;;;;;;5031067;28;20025;-70
2022/11/25 01:48:55;;;;;;;22.27;9.77;;;0.30;99.90;;;;;;5033377;28;20155;-71
2022/11/25 01:51:28;;;;;;;22.27;9.30;;;0.30;99.90;;;;;;5039575;28;20095;-71
2022/11/25 01:53:58;;;;;;;22.20;9.20;;;0.30;99.90;;;;;;5043159;28;20107;-70
2022/11/25 01:56:27;;;;;;;20.67;9.75;;;0.30;99.90;;;;;;5044278;28;20469;-69
2022/11/25 01:58:53;;;;;;;17.92;9.23;;;0.30;99.90;;;;;;5039544;28;20116;-73
2022/11/25 02:01:20;;;;;;;18.13;8.75;;;0.30;99.90;;;;;;5033337;28;21039;-70
2022/11/25 02:03:49;;;;;;;21.02;10.10;;;0.30;99.90;;;;;;5055124;28;20052;-70
2022/11/25 02:06:27;;;;;;;20.25;9.70;;;0.30;99.90;;;;;;5041229;28;20033;-70
2022/11/25 02:08:57;;;;;;;21.23;10.00;;;0.30;99.90;;;;;;5041353;28;20702;-73
2022/11/25 02:11:25;;;;;;;21.70;10.10;;;0.30;99.90;;;;;;5043678;28;20045;-72
2022/11/25 02:13:52;;;;;;;18.67;8.93;;;0.20;99.90;;;;;;5049193;28;20669;-69
2022/11/25 02:16:18;;;;;;;20.00;9.00;;;0.20;99.90;;;;;;5035893;28;20026;-70
2022/11/25 02:18:43;;;;;;;20.15;9.23;;;0.20;99.90;;;;;;5029827;28;20486;-69
2022/11/25 02:21:09;;;;;;;21.75;8.68;;;0.20;99.90;;;;;;5039587;28;20036;-68
2022/11/25 02:23:57;;;;;;;17.50;8.60;;;0.20;99.90;;;;;;5050483;28;20028;-75
2022/11/25 02:26:23;;;;;;;18.60;9.05;;;0.20;99.90;;;;;;5043642;28;20029;-71
2022/11/25 02:28:50;;;;;;;22.98;9.82;;;0.20;99.90;;;;;;5030537;28;20025;-71
2022/11/25 02:31:22;;;;;;;22.35;10.02;;;0.20;99.90;;;;;;5042804;28;20041;-70
2022/11/25 02:33:48;;;;;;;19.30;8.90;;;0.10;99.90;;;;;;5029202;28;20692;-70
2022/11/25 02:36:18;;;;;;;19.38;9.00;;;0.10;99.90;;;;;;5040962;28;20059;-69
2022/11/25 02:38:54;;;;;;;21.75;8.20;;;0.10;99.90;;;;;;5047673;28;20025;-70
2022/11/25 02:41:25;;;;;;;20.05;9.20;;;0.20;99.90;;;;;;5038363;28;20042;-68
2022/11/25 02:43:51;;;;;;;18.27;8.30;;;0.10;99.90;;;;;;5040703;28;20037;-70
2022/11/25 02:46:19;;;;;;;19.70;8.77;;;0.10;99.90;;;;;;5028760;28;20059;-70
2022/11/25 02:48:45;;;;;;;16.17;8.02;;;0.10;99.90;;;;;;5036361;28;20032;-70
2022/11/25 02:51:14;;;;;;;25.65;8.88;;;0.10;99.90;;;;;;5030162;28;20037;-70
2022/11/25 02:53:40;;;;;;;17.00;8.50;;;0.10;99.90;;;;;;5034884;28;20040;-72
2022/11/25 02:56:07;;;;;;;17.83;7.65;;;0.10;99.90;;;;;;5028428;28;20029;-68
2022/11/25 02:58:33;;;;;;;20.27;8.30;;;0.10;99.90;;;;;;5027404;28;20038;-73
2022/11/25 03:00:58;;;;;;;17.27;8.60;;;0.10;99.90;;;;;;5027922;28;20081;-70
2022/11/25 03:03:24;;;;;;;15.27;7.05;;;0.10;99.90;;;;;;5028609;28;20113;-70
2022/11/25 03:05:50;;;;;;;15.48;5.95;;;0.20;99.90;;;;;;5039755;28;20111;-69
2022/11/25 03:08:16;;;;;;;19.42;6.97;;;0.20;99.90;;;;;;5032295;28;20041;-71
2022/11/25 03:10:41;;;;;;;19.75;6.80;;;0.30;99.90;;;;;;5034633;28;20032;-72
2022/11/25 03:13:07;;;;;;;13.73;6.45;;;0.30;99.90;;;;;;5049608;28;20521;-71
2022/11/25 03:15:34;;;;;;;15.55;7.60;;;0.20;99.90;;;;;;5048879;28;20397;-71
2022/11/25 03:18:02;;;;;;;14.50;7.53;;;0.20;99.90;;;;;;5037327;28;20662;-70
2022/11/25 03:20:28;;;;;;;16.63;7.47;;;0.20;99.90;;;;;;5046243;28;20115;-70
2022/11/25 03:22:53;;;;;;;16.50;7.60;;;0.20;99.90;;;;;;5049220;28;20103;-71
2022/11/25 03:25:19;;;;;;;19.10;7.90;;;0.20;99.90;;;;;;5032919;28;20095;-71
2022/11/25 03:27:45;;;;;;;14.95;6.88;;;0.10;99.90;;;;;;5046840;28;20466;-70
2022/11/25 03:30:15;;;;;;;16.25;7.35;;;0.00;99.90;;;;;;5033436;28;20037;-71
2022/11/25 03:32:40;;;;;;;17.13;8.13;;;0.00;99.90;;;;;;5034085;28;20053;-77
2022/11/25 03:35:07;;;;;;;17.23;7.70;;;0.00;99.90;;;;;;5036360;28;20029;-70
2022/11/25 03:37:33;;;;;;;20.90;8.15;;;0.00;99.90;;;;;;5030957;28;20490;-74
2022/11/25 03:39:58;;;;;;;16.30;7.78;;;-0.10;99.90;;;;;;5043084;28;20028;-70
2022/11/25 03:42:24;;;;;;;17.85;7.88;;;-0.10;99.90;;;;;;5040122;28;20041;-71
2022/11/25 03:44:50;;;;;;;17.23;7.85;;;-0.10;99.90;;;;;;5043758;28;20068;-71
2022/11/25 03:47:15;;;;;;;16.40;7.93;;;-0.10;99.90;;;;;;5043471;28;20390;-71
2022/11/25 03:49:41;;;;;;;17.83;8.25;;;-0.10;99.90;;;;;;5042655;28;20041;-76
2022/11/25 03:52:07;;;;;;;17.17;8.13;;;-0.20;99.90;;;;;;5033437;28;20032;-71
2022/11/25 03:54:33;;;;;;;16.83;7.95;;;-0.20;99.90;;;;;;5031710;28;20112;-74
2022/11/25 03:56:58;;;;;;;18.35;8.50;;;-0.20;99.90;;;;;;5033914;28;20140;-75
2022/11/25 03:59:24;;;;;;;17.83;8.00;;;-0.20;99.90;;;;;;5030494;28;20354;-72
2022/11/25 04:01:50;;;;;;;18.05;8.52;;;-0.10;99.90;;;;;;5043103;28;20065;-71
2022/11/25 04:04:15;;;;;;;20.45;8.10;;;-0.10;99.90;;;;;;5031308;28;20119;-72
2022/11/25 04:06:41;;;;;;;15.27;7.45;;;-0.10;99.90;;;;;;5030491;28;20051;-78
2022/11/25 04:09:08;;;;;;;19.25;8.35;;;-0.10;99.90;;;;;;5028830;28;20040;-77
2022/11/25 04:14:18;;;;;;;21.02;8.73;;;-0.10;99.90;;;;;;5031280;28;20122;-73
2022/11/25 04:16:43;;;;;;;15.93;8.02;;;-0.10;99.90;;;;;;5038607;28;20079;-76
2022/11/25 04:19:09;;;;;;;17.75;8.70;;;-0.10;99.90;;;;;;5044357;28;20037;-72
2022/11/25 04:21:35;;;;;;;19.98;8.55;;;-0.10;99.90;;;;;;5037940;28;20041;-73
2022/11/25 04:24:00;;;;;;;18.95;9.32;;;-0.10;99.90;;;;;;5035302;28;20044;-74
2022/11/25 04:26:26;;;;;;;21.33;9.45;;;-0.10;99.90;;;;;;5030508;28;20443;-72
2022/11/25 04:28:52;;;;;;;18.38;9.38;;;-0.10;99.90;;;;;;5038713;28;20397;-73
2022/11/25 04:31:18;;;;;;;19.70;10.15;;;-0.20;99.90;;;;;;5047583;28;20115;-73
2022/11/25 04:33:43;;;;;;;19.15;9.73;;;-0.20;99.90;;;;;;5030501;28;21809;-76
2022/11/25 04:36:09;;;;;;;20.17;9.10;;;-0.20;99.90;;;;;;5030116;28;20065;-73
2022/11/25 04:38:35;;;;;;;18.10;8.95;;;-0.20;99.90;;;;;;5035303;28;20033;-72
2022/11/25 04:41:01;;;;;;;18.73;8.07;;;-0.30;99.90;;;;;;5039199;28;20195;-72
2022/11/25 04:43:26;;;;;;;19.45;8.27;;;-0.40;99.90;;;;;;5027430;28;20034;-74
2022/11/25 04:45:52;;;;;;;18.92;8.75;;;-0.40;99.90;;;;;;5033403;28;20056;-73
2022/11/25 04:48:18;;;;;;;18.65;8.35;;;-0.40;99.90;;;;;;5048426;28;20064;-72
2022/11/25 04:50:44;;;;;;;20.63;8.63;;;-0.40;99.90;;;;;;5038291;28;20095;-75
2022/11/25 04:53:10;;;;;;;18.92;8.50;;;-0.40;99.90;;;;;;5034804;28;20029;-69
2022/11/25 04:55:36;;;;;;;18.30;8.43;;;-0.40;99.90;;;;;;5042489;28;20486;-73
2022/11/25 04:58:02;;;;;;;19.63;8.82;;;-0.40;99.90;;;;;;5027700;28;20116;-72
2022/11/25 05:00:28;;;;;;;19.13;8.02;;;-0.40;99.90;;;;;;5037585;28;20112;-70
2022/11/25 05:02:53;;;;;;;18.58;8.23;;;-0.40;99.90;;;;;;5048517;28;20152;-72
2022/11/25 05:05:19;;;;;;;16.48;7.65;;;-0.40;99.90;;;;;;5044647;28;20040;-70
2022/11/25 05:07:45;;;;;;;18.90;8.32;;;-0.50;99.90;;;;;;5052230;28;20040;-76
2022/11/25 05:10:10;;;;;;;19.25;7.93;;;-0.40;99.90;;;;;;5049042;28;20029;-70
2022/11/25 05:12:37;;;;;;;17.63;7.90;;;-0.40;99.90;;;;;;5048556;28;20057;-70
2022/11/25 05:15:04;;;;;;;20.45;8.93;;;-0.30;99.90;;;;;;5048972;28;20079;-70
2022/11/25 05:17:31;;;;;;;19.23;8.30;;;-0.30;99.90;;;;;;5041520;28;20502;-70
2022/11/25 05:19:57;;;;;;;20.05;8.75;;;-0.30;99.90;;;;;;5029470;28;20043;-74
2022/11/25 05:22:28;;;;;;;15.52;7.28;;;-0.30;99.90;;;;;;5034643;28;20063;-72
2022/11/25 05:24:54;;;;;;;19.25;7.72;;;-0.20;99.90;;;;;;5031160;28;20079;-72
2022/11/25 05:27:20;;;;;;;17.92;8.93;;;-0.20;99.90;;;;;;5035064;28;20025;-70
2022/11/25 05:29:47;;;;;;;21.17;8.40;;;-0.20;99.90;;;;;;5051664;28;20320;-77
2022/11/25 05:32:13;;;;;;;15.18;7.88;;;-0.20;99.90;;;;;;5049647;28;20021;-72
2022/11/25 05:34:39;;;;;;;18.50;8.20;;;-0.20;99.90;;;;;;5041330;28;20099;-70
2022/11/25 05:37:06;;;;;;;16.88;8.00;;;-0.20;99.90;;;;;;5047637;28;20061;-71
2022/11/25 05:39:31;;;;;;;19.15;8.48;;;-0.20;99.90;;;;;;5029940;28;20123;-73
2022/11/25 05:41:57;;;;;;;24.55;10.35;;;-0.10;99.90;;;;;;5041998;28;20108;-71
2022/11/25 05:44:23;;;;;;;27.52;12.32;;;-0.10;99.90;;;;;;5042794;28;20037;-73
2022/11/25 05:46:49;;;;;;;19.88;9.80;;;-0.10;99.90;;;;;;5036075;28;20051;-75
2022/11/25 05:49:15;;;;;;;21.98;9.77;;;0.00;99.90;;;;;;5034155;28;20128;-71
2022/11/25 05:51:41;;;;;;;20.75;8.65;;;0.00;99.90;;;;;;5030601;28;20033;-71
2022/11/25 05:54:07;;;;;;;20.83;9.32;;;0.00;99.90;;;;;;5034367;28;20044;-73
2022/11/25 05:56:33;;;;;;;17.48;7.95;;;0.00;99.90;;;;;;5032109;28;20033;-75
2022/11/25 05:58:59;;;;;;;19.42;8.52;;;0.00;99.90;;;;;;5029744;28;20021;-72
2022/11/25 06:01:25;;;;;;;19.33;8.40;;;-0.10;99.90;;;;;;5027920;28;20109;-73
2022/11/25 06:03:51;;;;;;;16.60;8.88;;;-0.10;99.90;;;;;;5030864;28;20398;-73
2022/11/25 06:06:17;;;;;;;18.42;7.97;;;-0.10;99.90;;;;;;5031901;28;20923;-71
2022/11/25 06:08:42;;;;;;;18.25;8.55;;;-0.10;99.90;;;;;;5029151;28;20037;-71
2022/11/25 06:11:14;;;;;;;16.95;7.55;;;-0.10;99.90;;;;;;5026642;28;20048;-72
2022/11/25 06:13:41;;;;;;;17.13;8.00;;;-0.10;99.90;;;;;;5026436;28;20123;-72
2022/11/25 06:16:16;;;;;;;15.23;7.70;;;-0.10;99.90;;;;;;5024657;28;20029;-70
2022/11/25 06:18:42;;;;;;;18.85;8.30;;;-0.20;99.90;;;;;;5024309;28;20052;-70
2022/11/25 06:21:09;;;;;;;26.70;12.52;;;-0.20;99.90;;;;;;5026254;28;20195;-72
2022/11/25 06:23:35;;;;;;;44.90;16.83;;;-0.20;99.90;;;;;;5035584;28;20033;-71
2022/11/25 06:26:06;;;;;;;41.70;17.30;;;-0.30;99.90;;;;;;5029567;28;20040;-71
2022/11/25 06:28:32;;;;;;;43.17;16.75;;;-0.30;99.90;;;;;;5030611;28;20056;-72
2022/11/25 06:31:04;;;;;;;39.05;15.68;;;-0.30;99.90;;;;;;5034400;28;20072;-73
2022/11/25 06:33:30;;;;;;;40.35;15.85;;;-0.30;99.90;;;;;;5029468;28;20028;-72
2022/11/25 06:35:56;;;;;;;35.95;14.30;;;-0.30;99.90;;;;;;5026647;28;20038;-67
2022/11/25 06:38:21;;;;;;;32.78;12.40;;;-0.30;99.90;;;;;;5028499;28;20429;-67
2022/11/25 06:40:47;;;;;;;36.15;14.75;;;-0.30;99.90;;;;;;5035272;28;20025;-65
2022/11/25 06:43:13;;;;;;;32.70;14.48;;;-0.30;99.90;;;;;;5029536;28;20041;-64
2022/11/25 06:45:38;;;;;;;26.17;10.75;;;-0.40;99.90;;;;;;5029408;28;20034;-64
2022/11/25 06:48:04;;;;;;;27.17;11.43;;;-0.40;99.90;;;;;;5028803;28;20037;-64
2022/11/25 06:50:30;;;;;;;19.35;8.48;;;-0.40;99.90;;;;;;5038460;28;20029;-64
2022/11/25 06:52:55;;;;;;;19.05;7.97;;;-0.50;99.90;;;;;;5037606;28;20110;-64
2022/11/25 06:55:21;;;;;;;18.02;7.63;;;-0.60;99.90;;;;;;5027528;28;20061;-62
2022/11/25 06:57:47;;;;;;;20.58;8.63;;;-0.60;99.90;;;;;;5030345;28;20022;-65
2022/11/25 07:00:13;;;;;;;19.83;8.48;;;-0.60;99.90;;;;;;5027130;28;20566;-64
2022/11/25 07:02:38;;;;;;;19.17;8.75;;;-0.60;99.90;;;;;;5042976;28;20045;-65
2022/11/25 07:05:04;;;;;;;22.17;10.18;;;-0.50;99.90;;;;;;5041657;28;20037;-64
2022/11/25 07:07:30;;;;;;;22.40;9.95;;;-0.50;99.90;;;;;;5041214;28;20017;-62
2022/11/25 07:09:55;;;;;;;21.35;10.25;;;-0.50;99.90;;;;;;5028786;28;20482;-63
2022/11/25 07:12:21;;;;;;;23.77;10.45;;;-0.50;99.90;;;;;;5030093;28;20056;-64
2022/11/25 07:14:50;;;;;;;21.33;10.05;;;-0.40;99.90;;;;;;5036156;28;20033;-64
2022/11/25 07:17:16;;;;;;;21.85;10.07;;;-0.40;99.90;;;;;;5030116;28;20041;-63
2022/11/25 07:19:41;;;;;;;27.15;11.88;;;-0.40;99.90;;;;;;5038535;28;20026;-65
2022/11/25 07:22:07;;;;;;;37.67;15.70;;;-0.40;99.90;;;;;;5028932;28;20080;-63
2022/11/25 07:24:33;;;;;;;34.40;14.02;;;-0.30;99.90;;;;;;5036741;28;20033;-64
2022/11/25 07:26:58;;;;;;;36.83;15.20;;;-0.30;99.90;;;;;;5026885;28;20540;-64
2022/11/25 07:29:24;;;;;;;31.52;13.38;;;-0.20;99.90;;;;;;5029367;28;20083;-65
2022/11/25 07:31:50;;;;;;;25.40;11.95;;;-0.20;99.90;;;;;;5029865;28;20022;-63
2022/11/25 07:34:19;;;;;;;25.10;11.73;;;-0.10;99.90;;;;;;5030230;28;20423;-64
2022/11/25 07:36:46;;;;;;;21.08;9.50;;;-0.10;99.90;;;;;;5029285;28;20425;-63
2022/11/25 07:39:16;;;;;;;21.83;9.63;;;-0.10;99.90;;;;;;5038524;28;20029;-66
2022/11/25 07:41:42;;;;;;;31.42;11.30;;;0.00;99.90;;;;;;5028353;28;20067;-66
2022/11/25 07:44:11;;;;;;;21.73;10.27;;;0.00;99.90;;;;;;5054391;28;20474;-65
2022/11/25 07:46:39;;;;;;;24.33;10.35;;;0.00;99.90;;;;;;5015668;28;20033;-65
2022/11/25 07:49:11;;;;;;;22.05;9.10;;;0.00;99.90;;;;;;5044170;28;20033;-64
2022/11/25 07:52:01;;;;;;;26.00;10.90;;;0.10;99.90;;;;;;5049171;28;20043;-67
2022/11/25 07:54:27;;;;;;;25.90;10.88;;;0.20;99.90;;;;;;5038758;28;20082;-64
2022/11/25 07:56:53;;;;;;;33.05;12.95;;;0.20;99.90;;;;;;5043942;28;20040;-66
2022/11/25 07:59:21;;;;;;;30.15;12.18;;;0.20;99.90;;;;;;5037736;28;20043;-64
2022/11/25 08:01:51;;;;;;;25.60;11.30;;;0.20;99.90;;;;;;5034396;28;20112;-65
2022/11/25 08:04:17;;;;;;;24.05;11.93;;;0.20;99.90;;;;;;5028298;28;20034;-65
2022/11/25 08:06:44;;;;;;;27.83;10.65;;;0.20;99.90;;;;;;5030122;28;20055;-65
2022/11/25 08:09:18;;;;;;;30.42;11.80;;;0.20;99.90;;;;;;5038261;28;20095;-63
2022/11/25 08:11:44;;;;;;;19.13;9.82;;;0.20;99.90;;;;;;5046802;28;20122;-64
2022/11/25 08:14:10;;;;;;;20.08;8.25;;;0.20;99.90;;;;;;5031860;28;20036;-65
2022/11/25 08:16:36;;;;;;;19.13;8.93;;;0.20;99.90;;;;;;5028635;28;20390;-63
2022/11/25 08:19:05;;;;;;;18.83;8.90;;;0.20;99.90;;;;;;5035167;28;20477;-62
2022/11/25 08:21:31;;;;;;;23.45;9.82;;;0.30;99.90;;;;;;5029655;28;20032;-63
2022/11/25 08:23:57;;;;;;;24.50;10.75;;;0.40;99.90;;;;;;5027216;28;20037;-72
2022/11/25 08:26:25;;;;;;;23.52;10.18;;;0.50;99.90;;;;;;5028894;28;20029;-66
2022/11/25 08:28:52;;;;;;;20.05;9.23;;;0.60;99.90;;;;;;5028477;28;20393;-66
2022/11/25 08:31:24;;;;;;;27.85;10.30;;;0.70;99.90;;;;;;5034959;28;20045;-67
2022/11/25 08:33:50;;;;;;;21.40;9.95;;;0.80;99.90;;;;;;5040788;28;20071;-64
2022/11/25 08:36:17;;;;;;;22.65;9.73;;;0.90;99.90;;;;;;5031366;28;20632;-67
2022/11/25 08:38:45;;;;;;;19.95;9.35;;;1.00;99.90;;;;;;5026173;28;20025;-66
2022/11/25 08:41:14;;;;;;;19.80;9.02;;;0.90;99.90;;;;;;5031628;28;20437;-71
2022/11/25 08:43:40;;;;;;;19.48;8.88;;;1.00;99.90;;;;;;5037724;28;20025;-65
2022/11/25 08:46:26;;;;;;;19.77;9.63;;;1.00;99.90;;;;;;5029299;28;20039;-66
2022/11/25 08:48:52;;;;;;;20.67;8.73;;;1.00;99.90;;;;;;5031278;28;20037;-67
2022/11/25 08:51:22;;;;;;;20.17;9.30;;;1.00;99.90;;;;;;5029187;28;20657;-66
2022/11/25 08:53:50;;;;;;;20.83;10.13;;;1.10;99.90;;;;;;5030957;28;20579;-66
2022/11/25 08:56:17;;;;;;;18.40;9.07;;;1.10;99.90;;;;;;5031147;28;20044;-67
2022/11/25 08:58:44;;;;;;;19.67;8.90;;;1.10;99.90;;;;;;5026639;28;20040;-67
2022/11/25 09:01:11;;;;;;;18.00;9.10;;;1.20;99.90;;;;;;5025214;28;20033;-65
2022/11/25 09:03:39;;;;;;;31.30;14.90;;;1.30;99.90;;;;;;5032862;28;20037;-68
2022/11/25 09:06:06;;;;;;;22.23;10.18;;;1.30;99.90;;;;;;5030382;28;20045;-65
2022/11/25 09:08:32;;;;;;;26.10;10.25;;;1.40;99.90;;;;;;5040761;28;20049;-67
2022/11/25 09:10:58;;;;;;;21.25;10.50;;;1.40;99.90;;;;;;5031725;28;20036;-70
2022/11/25 09:13:25;;;;;;;24.35;10.50;;;1.50;99.90;;;;;;5039832;28;20052;-70
2022/11/25 09:15:51;;;;;;;32.05;15.13;;;1.50;99.90;;;;;;5014627;28;20422;-67
2022/11/25 09:18:19;;;;;;;38.67;16.92;;;1.60;99.90;;;;;;5008099;28;20038;-66
2022/11/25 09:20:45;;;;;;;32.70;15.35;;;1.70;99.90;;;;;;5008637;28;20038;-66
2022/11/25 09:23:12;;;;;;;26.60;13.20;;;1.70;99.90;;;;;;5008030;28;20084;-65
2022/11/25 09:25:38;;;;;;;29.27;13.48;;;1.70;99.90;;;;;;5023563;28;20029;-64
2022/11/25 09:28:04;;;;;;;30.63;14.43;;;1.80;99.90;;;;;;5007704;28;20034;-67
2022/11/25 09:30:30;;;;;;;39.67;18.98;;;1.90;99.90;;;;;;5027690;28;20040;-65
2022/11/25 09:32:55;;;;;;;42.53;17.98;;;2.00;99.90;;;;;;5028190;28;20040;-66
2022/11/25 09:35:23;;;;;;;43.92;19.13;;;2.10;99.90;;;;;;5027618;28;20025;-66
2022/11/25 09:37:49;;;;;;;28.08;12.70;;;2.30;99.90;;;;;;5031450;28;20052;-66
2022/11/25 09:40:34;;;;;;;24.25;11.32;;;2.40;99.90;;;;;;5029835;28;20439;-66
2022/11/25 09:46:41;;;;;;;68.70;26.60;;;2.60;99.90;;;;;;5029786;28;20086;-69
2022/11/25 09:49:30;;;;;;;34.50;14.77;;;2.70;99.90;;;;;;5031059;28;20104;-66
2022/11/25 09:52:20;;;;;;;25.15;11.70;;;2.80;99.90;;;;;;5030913;28;20080;-65
2022/11/25 09:55:09;;;;;;;27.93;12.80;;;2.80;99.90;;;;;;5031260;28;20100;-67
2022/11/25 09:57:48;;;;;;;34.72;15.85;;;3.00;99.90;;;;;;5031918;28;20040;-65
2022/11/25 10:00:18;;;;;;;31.27;14.55;;;3.30;99.90;;;;;;5030999;28;20579;-65
2022/11/25 10:03:06;;;;;;;23.92;12.40;;;3.40;99.90;;;;;;5031380;28;20040;-65
2022/11/25 10:05:36;;;;;;;29.92;13.60;;;3.50;99.90;;;;;;5031444;28;20030;-67
2022/11/25 10:08:16;;;;;;;27.27;12.55;;;3.60;99.90;;;;;;5031106;28;20029;-69
2022/11/25 10:10:43;;;;;;;22.45;11.90;;;3.60;99.90;;;;;;5030752;28;20501;-66
2022/11/25 10:13:21;;;;;;;23.52;12.40;;;3.60;99.90;;;;;;5030480;28;20061;-65
2022/11/25 10:15:49;;;;;;;26.77;12.55;;;3.70;99.90;;;;;;5031388;28;20057;-65
2022/11/25 10:18:41;;;;;;;26.92;12.80;;;3.80;99.90;;;;;;5030512;28;20522;-65
2022/11/25 10:21:10;;;;;;;26.33;12.02;;;3.90;99.90;;;;;;5030494;28;20033;-64
2022/11/25 10:23:38;;;;;;;24.73;11.70;;;3.90;99.90;;;;;;5030571;28;20117;-67
2022/11/25 10:26:14;;;;;;;23.35;12.25;;;4.00;99.90;;;;;;5030459;28;20431;-71
2022/11/25 10:28:51;;;;;;;24.27;11.90;;;4.10;99.90;;;;;;5029808;28;20445;-65
2022/11/25 10:31:22;;;;;;;24.77;12.00;;;4.20;99.90;;;;;;5030297;28;20076;-66
2022/11/25 10:33:50;;;;;;;26.63;12.65;;;4.40;99.90;;;;;;5030916;28;20061;-66
2022/11/25 10:36:35;;;;;;;26.80;13.15;;;4.60;99.90;;;;;;5030171;28;20037;-67
2022/11/25 10:39:27;;;;;;;28.05;12.95;;;4.80;99.90;;;;;;5030491;28;20026;-66
2022/11/25 10:42:06;;;;;;;26.55;12.40;;;5.00;99.90;;;;;;5016206;28;20087;-67
2022/11/25 10:44:34;;;;;;;25.10;12.20;;;5.10;99.90;;;;;;5030929;28;20761;-65
2022/11/25 10:47:21;;;;;;;26.92;11.65;;;5.30;99.90;;;;;;5030339;28;20114;-66
2022/11/25 10:49:47;;;;;;;22.83;11.10;;;5.50;99.90;;;;;;5030442;28;20033;-67
2022/11/25 10:52:13;;;;;;;23.63;11.63;;;5.50;99.90;;;;;;5029641;28;20439;-67
2022/11/25 10:54:39;;;;;;;23.02;11.45;;;5.50;99.90;;;;;;5030351;28;20360;-65
2022/11/25 10:57:19;;;;;;;24.33;11.43;;;5.60;99.90;;;;;;5030067;28;20033;-69
2022/11/25 10:59:57;;;;;;;19.67;8.90;;;5.70;99.90;;;;;;5030331;28;20034;-65
2022/11/25 11:02:25;;;;;;;27.05;12.10;;;5.80;99.90;;;;;;5030070;28;20225;-66
2022/11/25 11:04:58;;;;;;;25.15;12.60;;;5.90;99.90;;;;;;5030351;28;20068;-65
2022/11/25 11:07:27;;;;;;;27.42;12.93;;;6.00;99.90;;;;;;5029179;28;20099;-64
2022/11/25 11:09:53;;;;;;;26.38;12.52;;;6.00;99.90;;;;;;5030191;28;20037;-66
2022/11/25 11:12:23;;;;;;;27.45;12.90;;;6.10;99.90;;;;;;5029214;28;20064;-66
2022/11/25 11:14:52;;;;;;;29.85;12.38;;;6.20;99.90;;;;;;5028741;28;20553;-66
2022/11/25 11:17:31;;;;;;;27.35;11.00;;;6.20;99.90;;;;;;5029063;28;20737;-65
2022/11/25 11:20:06;;;;;;;20.60;10.25;;;6.30;99.90;;;;;;5030146;28;20155;-66
2022/11/25 11:22:43;;;;;;;21.58;10.57;;;6.40;99.90;;;;;;5029438;28;20033;-68
2022/11/25 11:25:18;;;;;;;28.42;13.52;;;6.40;99.90;;;;;;5027975;28;20386;-66
2022/11/25 11:27:44;;;;;;;23.02;9.90;;;6.50;99.90;;;;;;5029875;28;20037;-65
2022/11/25 11:30:19;;;;;;;31.58;13.57;;;6.50;99.90;;;;;;5029136;28;20033;-65
2022/11/25 11:32:56;;;;;;;31.90;12.98;;;6.50;99.90;;;;;;5029801;28;20018;-65
2022/11/25 11:35:25;;;;;;;25.95;12.52;;;6.40;99.90;;;;;;5029040;28;20083;-67
2022/11/25 11:37:58;;;;;;;23.05;9.90;;;6.40;99.90;;;;;;5029260;28;20077;-67
2022/11/25 11:40:45;;;;;;;22.55;11.63;;;6.40;99.90;;;;;;5028854;28;20116;-65
2022/11/25 11:43:20;;;;;;;17.95;9.27;;;6.50;99.90;;;;;;5028543;28;20045;-65
2022/11/25 11:46:15;;;;;;;17.60;8.48;;;6.60;99.90;;;;;;5029631;28;20041;-64
2022/11/25 11:48:52;;;;;;;15.02;6.07;;;6.70;99.90;;;;;;5029699;28;20059;-64
2022/11/25 11:51:30;;;;;;;16.27;6.28;;;6.80;99.90;;;;;;5028772;28;20037;-65
2022/11/25 11:54:16;;;;;;;13.38;6.20;;;6.90;99.90;;;;;;5029418;28;20037;-64
2022/11/25 11:56:49;;;;;;;11.57;6.30;;;7.10;99.90;;;;;;5029255;28;20508;-67
2022/11/25 11:59:41;;;;;;;13.88;5.78;;;7.10;99.90;;;;;;5027794;28;20471;-65
2022/11/25 12:02:48;;;;;;;12.93;4.90;;;7.20;99.90;;;;;;5029283;28;20029;-71
2022/11/25 12:05:20;;;;;;;14.18;4.82;;;7.10;99.90;;;;;;5028516;28;20029;-66
2022/11/25 12:07:51;;;;;;;13.98;4.20;;;7.10;99.90;;;;;;5028424;28;20044;-64
2022/11/25 12:10:31;;;;;;;9.20;4.35;;;7.10;99.90;;;;;;5028023;28;20417;-66
2022/11/25 12:13:21;;;;;;;17.57;4.60;;;7.10;99.90;;;;;;5028754;28;20061;-65
2022/11/25 12:16:00;;;;;;;10.10;4.07;;;7.10;99.90;;;;;;5028908;28;20421;-66
2022/11/25 12:18:44;;;;;;;13.23;5.03;;;7.10;99.90;;;;;;5028291;28;20059;-66
2022/11/25 12:21:18;;;;;;;11.02;4.32;;;7.10;99.90;;;;;;5028742;28;20037;-74
2022/11/25 12:23:47;;;;;;;12.57;4.60;;;7.10;99.90;;;;;;5029127;28;20040;-66
2022/11/25 12:26:21;;;;;;;12.75;4.82;;;7.10;99.90;;;;;;5028120;28;20064;-65
2022/11/25 12:28:58;;;;;;;10.35;4.70;;;7.10;99.90;;;;;;5028774;28;20487;-67
2022/11/25 12:31:35;;;;;;;17.20;4.97;;;7.10;99.90;;;;;;5028294;28;20037;-64
2022/11/25 12:34:05;;;;;;;14.10;7.25;;;7.20;99.90;;;;;;5029100;28;20703;-65
2022/11/25 12:36:42;;;;;;;14.25;5.75;;;7.10;99.90;;;;;;5027769;28;20527;-66
2022/11/25 12:39:14;;;;;;;13.00;5.72;;;7.00;99.90;;;;;;5028512;28;20029;-63
2022/11/25 12:42:03;;;;;;;15.20;6.30;;;7.00;99.90;;;;;;5029097;28;20053;-65
2022/11/25 12:44:49;;;;;;;15.80;5.32;;;7.00;99.90;;;;;;5027918;28;20037;-64
2022/11/25 12:47:14;;;;;;;24.13;5.30;;;7.00;99.90;;;;;;5028082;28;20103;-65
2022/11/25 12:49:44;;;;;;;18.38;5.05;;;7.10;99.90;;;;;;5028526;28;20068;-63
2022/11/25 12:52:19;;;;;;;14.95;5.15;;;7.10;99.90;;;;;;5028752;28;20030;-68
2022/11/25 12:55:09;;;;;;;18.02;4.93;;;7.10;99.90;;;;;;5028523;28;20440;-66
2022/11/25 12:57:49;;;;;;;11.90;4.47;;;7.00;99.90;;;;;;5027978;28;20104;-65
2022/11/25 13:00:25;;;;;;;14.40;4.47;;;7.00;99.90;;;;;;5027748;28;20287;-66
2022/11/25 13:03:21;;;;;;;12.70;5.22;;;7.00;99.90;;;;;;5028836;28;20040;-65
2022/11/25 13:06:05;;;;;;;14.13;4.80;;;7.00;99.90;;;;;;5028494;28;20057;-67